createdAt,value
2023-03-27T00:02:00.242Z,12.79
2023-03-27T00:06:17.228Z,12.51
2023-03-27T00:10:29.820Z,11.98
2023-03-27T00:14:42.315Z,11.92
2023-03-27T00:18:55.742Z,11.69
2023-03-27T00:23:08.286Z,11.64
2023-03-27T00:27:20.588Z,11.44
2023-03-27T00:31:32.951Z,11.41
2023-03-27T00:35:47.643Z,11.92
2023-03-27T00:40:00.594Z,12.12
2023-03-27T00:44:25.795Z,12.14
2023-03-27T00:48:38.489Z,11.81
2023-03-27T00:52:56.567Z,11.66
2023-03-27T00:57:15.464Z,11.76
2023-03-27T01:01:29.478Z,11.55
2023-03-27T01:05:42.141Z,11.40
2023-03-27T01:09:56.705Z,11.46
2023-03-27T01:14:16.648Z,11.50
2023-03-27T01:18:49.209Z,11.51
2023-03-27T01:23:59.660Z,11.52
2023-03-27T01:28:33.959Z,11.68
2023-03-27T01:33:01.800Z,11.46
2023-03-27T01:38:00.127Z,11.71
2023-03-27T01:42:21.243Z,11.64
2023-03-27T01:46:42.041Z,11.59
2023-03-27T01:51:04.987Z,11.48
2023-03-27T01:55:24.406Z,11.33
2023-03-27T01:59:44.880Z,11.42
2023-03-27T02:04:02.128Z,11.37
2023-03-27T02:08:31.506Z,11.43
2023-03-27T02:13:01.597Z,11.60
2023-03-27T02:17:15.039Z,11.64
2023-03-27T02:21:28.146Z,11.67
2023-03-27T02:25:45.708Z,11.99
2023-03-27T02:30:16.904Z,12.45
2023-03-27T02:34:39.834Z,12.50
2023-03-27T02:39:10.383Z,12.59
2023-03-27T02:43:35.106Z,12.75
2023-03-27T02:48:27.764Z,12.82
2023-03-27T02:52:53.920Z,13.21
2023-03-27T02:57:11.939Z,13.31
2023-03-27T03:01:45.756Z,13.32
2023-03-27T03:06:07.515Z,13.36
2023-03-27T03:10:21.523Z,13.45
2023-03-27T03:14:39.560Z,13.47
2023-03-27T03:18:52.252Z,13.57
2023-03-27T03:23:04.649Z,13.81
2023-03-27T03:27:21.267Z,14.04
2023-03-27T03:31:43.786Z,14.05
2023-03-27T03:36:01.029Z,14.11
2023-03-27T03:40:19.630Z,14.00
2023-03-27T03:44:35.653Z,14.18
2023-03-27T03:48:59.238Z,14.45
2023-03-27T03:53:12.726Z,14.66
2023-03-27T03:57:25.063Z,14.68
2023-03-27T04:01:51.919Z,14.84
2023-03-27T04:06:07.981Z,14.75
2023-03-27T04:10:20.375Z,14.59
2023-03-27T04:14:33.489Z,14.56
2023-03-27T04:18:54.750Z,14.55
2023-03-27T04:23:10.406Z,14.43
2023-03-27T04:27:25.162Z,14.35
2023-03-27T04:31:46.837Z,14.17
2023-03-27T04:36:18.723Z,13.17
2023-03-27T04:40:39.668Z,13.23
2023-03-27T04:44:53.329Z,13.80
2023-03-27T04:49:06.344Z,14.47
2023-03-27T04:53:38.090Z,14.69
2023-03-27T04:57:51.372Z,14.57
2023-03-27T05:02:05.385Z,14.11
2023-03-27T05:06:28.248Z,14.48
2023-03-27T05:10:40.868Z,14.45
2023-03-27T05:14:53.324Z,13.62
2023-03-27T05:19:20.495Z,13.02
2023-03-27T05:23:42.467Z,12.15
2023-03-27T05:27:55.409Z,12.09
2023-03-27T05:32:10.958Z,12.76
2023-03-27T05:36:30.122Z,12.46
2023-03-27T05:40:43.877Z,12.35
2023-03-27T05:45:00.582Z,11.89
2023-03-27T05:49:13.529Z,11.50
2023-03-27T05:53:28.379Z,12.09
2023-03-27T05:58:00.154Z,11.71
2023-03-27T06:02:21.109Z,11.36
2023-03-27T06:06:44.042Z,11.73
2023-03-27T06:10:57.965Z,11.58
2023-03-27T06:15:18.136Z,11.67
2023-03-27T06:19:37.751Z,11.22
2023-03-27T06:23:50.157Z,11.10
2023-03-27T06:28:08.588Z,10.76
2023-03-27T06:32:30.037Z,10.95
2023-03-27T06:36:43.314Z,10.44
2023-03-27T06:40:58.133Z,10.15
2023-03-27T06:45:12.081Z,10.45
2023-03-27T06:49:47.929Z,10.84
2023-03-27T06:54:06.240Z,10.42
2023-03-27T06:58:19.401Z,10.62
2023-03-27T07:02:32.117Z,10.59
2023-03-27T07:07:02.670Z,10.68
2023-03-27T07:11:19.378Z,11.17
2023-03-27T07:15:40.153Z,11.30
2023-03-27T07:19:54.125Z,11.28
2023-03-27T07:24:10.275Z,11.02
2023-03-27T07:28:23.502Z,11.00
2023-03-27T07:32:37.990Z,11.25
2023-03-27T07:36:53.410Z,11.20
2023-03-27T07:41:07.411Z,11.04
2023-03-27T07:45:38.724Z,11.47
2023-03-27T07:49:51.261Z,11.36
2023-03-27T07:54:07.557Z,11.40
2023-03-27T07:58:23.733Z,11.51
2023-03-27T08:02:37.973Z,11.44
2023-03-27T08:06:51.967Z,11.60
2023-03-27T08:11:13.513Z,11.81
2023-03-27T08:15:32.531Z,11.71
2023-03-27T08:19:46.685Z,12.05
2023-03-27T08:24:04.984Z,12.11
2023-03-27T08:28:20.486Z,12.23
2023-03-27T08:32:33.297Z,12.13
2023-03-27T08:36:52.810Z,11.88
2023-03-27T08:41:08.005Z,11.73
2023-03-27T08:45:30.864Z,11.75
2023-03-27T08:50:15.669Z,11.93
2023-03-27T08:54:35.131Z,12.22
2023-03-27T08:58:49.155Z,12.30
2023-03-27T09:03:29.859Z,12.42
2023-03-27T09:07:50.312Z,13.05
2023-03-27T09:12:26.188Z,13.81
2023-03-27T09:16:49.970Z,14.35
2023-03-27T09:21:20.034Z,15.06
2023-03-27T09:25:38.304Z,14.94
2023-03-27T09:30:11.338Z,15.13
2023-03-27T09:34:33.746Z,15.33
2023-03-27T09:38:51.264Z,15.45
2023-03-27T09:43:24.537Z,15.65
2023-03-27T09:47:45.580Z,15.84
2023-03-27T09:52:00.483Z,13.49
2023-03-27T09:56:39.129Z,12.55
2023-03-27T10:01:23.633Z,11.87
2023-03-27T10:05:39.237Z,9.72
2023-03-27T10:10:09.746Z,9.63
2023-03-27T10:14:47.656Z,9.77
2023-03-27T10:19:20.868Z,9.43
2023-03-27T10:23:51.784Z,9.84
2023-03-27T10:28:23.129Z,10.47
2023-03-27T10:32:57.320Z,10.82
2023-03-27T10:37:34.627Z,11.47
2023-03-27T10:42:09.657Z,12.16
2023-03-27T10:46:29.552Z,12.95
2023-03-27T10:50:58.122Z,13.55
2023-03-27T10:55:55.970Z,13.93
2023-03-27T11:00:18.728Z,13.41
2023-03-27T11:04:49.611Z,13.42
2023-03-27T11:09:16.291Z,13.21
2023-03-27T11:13:45.656Z,13.59
2023-03-27T11:18:03.341Z,14.38
2023-03-27T11:22:45.156Z,15.78
2023-03-27T11:27:39.336Z,16.26
2023-03-27T11:31:53.890Z,16.66
2023-03-27T11:36:51.780Z,15.75
2023-03-27T11:41:15.245Z,15.73
2023-03-27T11:45:49.270Z,16.63
2023-03-27T11:50:26.660Z,19.14
2023-03-27T11:55:06.854Z,19.13
2023-03-27T11:59:36.005Z,17.65
2023-03-27T12:04:07.124Z,15.73
2023-03-27T12:09:11.204Z,15.91
2023-03-27T12:14:40.096Z,16.58
2023-03-27T12:19:06.016Z,17.21
2023-03-27T12:24:16.409Z,16.30
2023-03-27T12:29:03.075Z,16.45
2023-03-27T12:34:05.475Z,17.56
2023-03-27T12:38:31.661Z,17.61
2023-03-27T12:42:54.035Z,16.75
2023-03-27T12:47:14.605Z,16.29
2023-03-27T12:51:54.104Z,15.96
2023-03-27T12:56:34.729Z,16.04
2023-03-27T13:01:00.803Z,16.84
2023-03-27T13:06:21.070Z,17.21
2023-03-27T13:10:34.638Z,16.43
2023-03-27T13:14:57.630Z,15.95
2023-03-27T13:19:32.096Z,16.07
2023-03-27T13:24:08.794Z,16.31
2023-03-27T13:28:37.554Z,16.31
2023-03-27T13:33:28.294Z,15.89
2023-03-27T13:37:48.429Z,15.49
2023-03-27T13:42:32.273Z,15.36
2023-03-27T13:46:51.278Z,15.38
2023-03-27T13:51:13.362Z,15.18
2023-03-27T13:55:57.078Z,14.82
2023-03-27T14:00:57.364Z,14.40
2023-03-27T14:05:35.885Z,14.00
2023-03-27T14:10:38.064Z,13.55
2023-03-27T14:15:46.588Z,13.60
2023-03-27T14:20:23.603Z,12.67
2023-03-27T14:25:01.304Z,12.63
2023-03-27T14:29:36.820Z,12.89
2023-03-27T14:34:12.430Z,12.99
2023-03-27T14:38:31.367Z,12.35
2023-03-27T14:42:49.901Z,11.60
2023-03-27T14:47:10.237Z,11.51
2023-03-27T14:51:35.100Z,11.59
2023-03-27T14:55:49.564Z,11.51
2023-03-27T15:00:23.750Z,11.19
2023-03-27T15:04:40.482Z,11.30
2023-03-27T15:09:05.682Z,10.61
2023-03-27T15:13:48.234Z,10.28
2023-03-27T15:18:15.639Z,10.45
2023-03-27T15:22:31.123Z,10.14
2023-03-27T15:26:43.719Z,9.63
2023-03-27T15:31:01.133Z,9.75
2023-03-27T15:35:36.283Z,9.79
2023-03-27T15:40:26.867Z,9.37
2023-03-27T15:44:42.153Z,9.38
2023-03-27T15:48:56.619Z,9.44
2023-03-27T15:53:09.097Z,9.31
2023-03-27T15:57:21.905Z,9.20
2023-03-27T16:01:40.910Z,9.29
2023-03-27T16:05:56.718Z,9.48
2023-03-27T16:10:10.699Z,9.36
2023-03-27T16:14:32.696Z,9.21
2023-03-27T16:18:49.367Z,9.25
2023-03-27T16:23:02.546Z,9.39
2023-03-27T16:27:15.073Z,9.58
2023-03-27T16:31:27.700Z,9.57
2023-03-27T16:35:40.080Z,9.38
2023-03-27T16:39:53.743Z,9.31
2023-03-27T16:44:06.181Z,9.23
2023-03-27T16:48:23.913Z,9.00
2023-03-27T16:52:36.313Z,8.94
2023-03-27T16:56:48.866Z,8.83
2023-03-27T17:01:01.521Z,8.76
2023-03-27T17:05:14.826Z,8.59
2023-03-27T17:09:27.912Z,8.72
2023-03-27T17:13:43.329Z,8.59
2023-03-27T17:17:56.237Z,8.42
2023-03-27T17:22:09.619Z,8.62
2023-03-27T17:26:28.187Z,8.55
2023-03-27T17:30:56.598Z,8.57
2023-03-27T17:35:13.785Z,8.67
2023-03-27T17:39:27.212Z,8.65
2023-03-27T17:43:40.532Z,8.41
2023-03-27T17:47:53.027Z,8.33
2023-03-27T17:52:08.562Z,8.80
2023-03-27T17:56:22.991Z,8.55
2023-03-27T18:00:36.648Z,8.82
2023-03-27T18:04:52.423Z,8.77
2023-03-27T18:09:05.287Z,8.72
2023-03-27T18:13:21.400Z,8.78
2023-03-27T18:17:35.771Z,8.67
2023-03-27T18:21:49.946Z,8.79
2023-03-27T18:26:08.991Z,8.71
2023-03-27T18:30:21.670Z,8.71
2023-03-27T18:34:34.308Z,8.80
2023-03-27T18:38:49.727Z,8.56
2023-03-27T18:43:02.350Z,8.39
2023-03-27T18:47:14.781Z,8.28
2023-03-27T18:51:27.152Z,8.36
2023-03-27T18:55:39.610Z,8.31
2023-03-27T18:59:52.264Z,8.33
2023-03-27T19:04:04.960Z,8.41
2023-03-27T19:08:18.730Z,8.68
2023-03-27T19:12:32.085Z,8.47
2023-03-27T19:17:01.048Z,8.48
2023-03-27T19:21:31.954Z,8.48
2023-03-27T19:25:55.148Z,8.32
2023-03-27T19:30:09.015Z,8.38
2023-03-27T19:34:32.666Z,8.21
2023-03-27T19:38:48.885Z,8.18
2023-03-27T19:43:01.329Z,8.27
2023-03-27T19:47:13.879Z,8.19
2023-03-27T19:51:26.374Z,8.15
2023-03-27T19:55:38.930Z,8.15
2023-03-27T19:59:51.743Z,8.26
2023-03-27T20:04:04.920Z,8.29
2023-03-27T20:08:18.308Z,8.26
2023-03-27T20:12:33.046Z,8.30
2023-03-27T20:16:46.846Z,8.36
2023-03-27T20:21:02.490Z,8.36
2023-03-27T20:25:15.694Z,8.30
2023-03-27T20:29:29.773Z,8.24
2023-03-27T20:33:42.159Z,8.29
2023-03-27T20:37:58.055Z,8.39
2023-03-27T20:42:15.966Z,8.07
2023-03-27T20:46:33.181Z,8.06
2023-03-27T20:50:55.788Z,8.03
2023-03-27T20:55:09.203Z,7.79
2023-03-27T20:59:21.938Z,7.75
2023-03-27T21:03:37.126Z,7.79
2023-03-27T21:07:51.582Z,7.95
2023-03-27T21:12:04.114Z,8.09
2023-03-27T21:16:16.715Z,7.78
2023-03-27T21:20:29.119Z,7.96
2023-03-27T21:24:41.441Z,7.88
2023-03-27T21:28:53.969Z,7.84
2023-03-27T21:33:07.503Z,7.93
2023-03-27T21:37:20.054Z,8.15
2023-03-27T21:41:32.667Z,7.71
2023-03-27T21:45:47.033Z,7.86
2023-03-27T21:49:59.444Z,7.68
2023-03-27T21:54:11.866Z,7.67
2023-03-27T21:58:25.026Z,7.71
2023-03-27T22:02:37.520Z,7.64
2023-03-27T22:06:50.064Z,7.82
2023-03-27T22:11:02.465Z,7.95
2023-03-27T22:15:14.839Z,7.83
2023-03-27T22:19:27.328Z,7.68
2023-03-27T22:23:39.816Z,7.40
2023-03-27T22:27:52.316Z,7.09
2023-03-27T22:32:04.830Z,6.92
2023-03-27T22:36:17.555Z,6.95
2023-03-27T22:40:30.130Z,7.08
2023-03-27T22:44:42.716Z,7.16
2023-03-27T22:48:56.863Z,7.11
2023-03-27T22:53:09.366Z,7.31
2023-03-27T22:57:21.665Z,7.17
2023-03-27T23:01:34.104Z,7.38
2023-03-27T23:05:49.371Z,7.36
2023-03-27T23:10:02.036Z,7.56
2023-03-27T23:14:14.678Z,7.34
2023-03-27T23:18:27.398Z,7.31
2023-03-27T23:22:39.797Z,7.15
2023-03-27T23:26:52.299Z,6.93
2023-03-27T23:31:07.432Z,6.93
2023-03-27T23:35:21.325Z,7.08
2023-03-27T23:39:33.706Z,7.38
2023-03-27T23:43:46.491Z,7.45
2023-03-27T23:47:58.888Z,7.43
2023-03-27T23:52:11.493Z,7.17
2023-03-27T23:56:23.883Z,6.92
